sensor_id;sensor_type;location;lat;lon;timestamp;temperature;humidity
27534;DHT22;14973;51.460;7.008;2023-04-15T00:01:01;7.50;99.90
27534;DHT22;14973;51.460;7.008;2023-04-15T00:03:26;7.50;1.00
27534;DHT22;14973;51.460;7.008;2023-04-15T00:05:52;7.50;99.90
27534;DHT22;14973;51.460;7.008;2023-04-15T00:08:18;7.40;1.00
27534;DHT22;14973;51.460;7.008;2023-04-15T00:10:44;7.40;1.00
27534;DHT22;14973;51.460;7.008;2023-04-15T00:13:10;7.30;99.90
27534;DHT22;14973;51.460;7.008;2023-04-15T00:15:36;7.10;53.80
27534;DHT22;14973;51.460;7.008;2023-04-15T00:18:02;7.00;99.90
27534;DHT22;14973;51.460;7.008;2023-04-15T00:20:28;6.90;1.00
27534;DHT22;14973;51.460;7.008;2023-04-15T00:22:54;6.90;99.90
27534;DHT22;14973;51.460;7.008;2023-04-15T00:25:19;6.90;1.00
27534;DHT22;14973;51.460;7.008;2023-04-15T00:27:45;7.00;99.90
27534;DHT22;14973;51.460;7.008;2023-04-15T00:30:10;7.10;99.90
27534;DHT22;14973;51.460;7.008;2023-04-15T00:32:36;7.20;99.90
27534;DHT22;14973;51.460;7.008;2023-04-15T00:35:01;7.20;1.00
27534;DHT22;14973;51.460;7.008;2023-04-15T00:37:28;7.20;99.90
27534;DHT22;14973;51.460;7.008;2023-04-15T00:39:53;7.30;99.90
27534;DHT22;14973;51.460;7.008;2023-04-15T00:42:19;7.20;1.00
27534;DHT22;14973;51.460;7.008;2023-04-15T00:44:46;7.10;99.90
27534;DHT22;14973;51.460;7.008;2023-04-15T00:47:11;7.00;99.90
27534;DHT22;14973;51.460;7.008;2023-04-15T00:49:37;7.10;99.90
27534;DHT22;14973;51.460;7.008;2023-04-15T00:52:03;7.10;99.90
27534;DHT22;14973;51.460;7.008;2023-04-15T00:54:28;7.20;99.90
27534;DHT22;14973;51.460;7.008;2023-04-15T00:56:54;7.10;99.90
27534;DHT22;14973;51.460;7.008;2023-04-15T00:59:20;7.00;1.00
27534;DHT22;14973;51.460;7.008;2023-04-15T01:01:46;6.80;11.50
27534;DHT22;14973;51.460;7.008;2023-04-15T01:04:11;6.70;99.90
27534;DHT22;14973;51.460;7.008;2023-04-15T01:06:37;6.70;99.90
27534;DHT22;14973;51.460;7.008;2023-04-15T01:09:02;6.60;99.90
27534;DHT22;14973;51.460;7.008;2023-04-15T01:11:28;6.50;1.00
27534;DHT22;14973;51.460;7.008;2023-04-15T01:13:55;6.40;1.00
27534;DHT22;14973;51.460;7.008;2023-04-15T01:16:21;6.40;1.00
27534;DHT22;14973;51.460;7.008;2023-04-15T01:18:47;6.40;1.00
27534;DHT22;14973;51.460;7.008;2023-04-15T01:21:13;6.30;1.00
27534;DHT22;14973;51.460;7.008;2023-04-15T01:23:39;6.30;1.00
27534;DHT22;14973;51.460;7.008;2023-04-15T01:26:07;6.30;1.00
27534;DHT22;14973;51.460;7.008;2023-04-15T01:28:36;6.30;1.00
27534;DHT22;14973;51.460;7.008;2023-04-15T01:31:06;6.30;1.00
27534;DHT22;14973;51.460;7.008;2023-04-15T01:33:32;6.20;1.00
27534;DHT22;14973;51.460;7.008;2023-04-15T01:35:57;6.20;1.00
27534;DHT22;14973;51.460;7.008;2023-04-15T01:38:23;6.10;1.00
27534;DHT22;14973;51.460;7.008;2023-04-15T01:40:48;6.10;1.00
27534;DHT22;14973;51.460;7.008;2023-04-15T01:43:14;6.10;1.00
27534;DHT22;14973;51.460;7.008;2023-04-15T01:45:39;6.00;1.00
27534;DHT22;14973;51.460;7.008;2023-04-15T01:48:05;6.10;1.00
27534;DHT22;14973;51.460;7.008;2023-04-15T01:50:31;6.10;1.00
27534;DHT22;14973;51.460;7.008;2023-04-15T01:52:56;6.10;3.30
27534;DHT22;14973;51.460;7.008;2023-04-15T01:55:22;6.20;1.00
27534;DHT22;14973;51.460;7.008;2023-04-15T01:57:48;6.30;1.10
27534;DHT22;14973;51.460;7.008;2023-04-15T02:00:13;6.20;1.00
27534;DHT22;14973;51.460;7.008;2023-04-15T02:02:39;6.20;1.00
27534;DHT22;14973;51.460;7.008;2023-04-15T02:05:04;6.20;3.10
27534;DHT22;14973;51.460;7.008;2023-04-15T02:07:30;6.30;1.10
27534;DHT22;14973;51.460;7.008;2023-04-15T02:09:56;6.20;2.30
27534;DHT22;14973;51.460;7.008;2023-04-15T02:12:22;6.30;1.60
27534;DHT22;14973;51.460;7.008;2023-04-15T02:14:47;6.30;1.20
27534;DHT22;14973;51.460;7.008;2023-04-15T02:17:13;6.40;1.30
27534;DHT22;14973;51.460;7.008;2023-04-15T02:19:38;6.30;3.00
27534;DHT22;14973;51.460;7.008;2023-04-15T02:22:04;6.30;4.00
27534;DHT22;14973;51.460;7.008;2023-04-15T02:24:31;6.30;1.00
27534;DHT22;14973;51.460;7.008;2023-04-15T02:26:57;6.30;8.00
27534;DHT22;14973;51.460;7.008;2023-04-15T02:29:22;6.40;1.40
27534;DHT22;14973;51.460;7.008;2023-04-15T02:31:48;6.30;1.00
27534;DHT22;14973;51.460;7.008;2023-04-15T02:34:14;6.20;3.30
27534;DHT22;14973;51.460;7.008;2023-04-15T02:36:39;6.10;2.80
27534;DHT22;14973;51.460;7.008;2023-04-15T02:39:05;6.00;17.80
27534;DHT22;14973;51.460;7.008;2023-04-15T02:41:31;6.10;23.20
27534;DHT22;14973;51.460;7.008;2023-04-15T02:43:56;6.10;27.00
27534;DHT22;14973;51.460;7.008;2023-04-15T02:46:22;6.10;27.50
27534;DHT22;14973;51.460;7.008;2023-04-15T02:48:48;6.00;34.50
27534;DHT22;14973;51.460;7.008;2023-04-15T02:51:17;6.10;37.60
27534;DHT22;14973;51.460;7.008;2023-04-15T02:53:47;6.10;34.60
27534;DHT22;14973;51.460;7.008;2023-04-15T02:56:13;6.10;39.80
27534;DHT22;14973;51.460;7.008;2023-04-15T02:58:39;6.10;41.20
27534;DHT22;14973;51.460;7.008;2023-04-15T03:01:05;6.00;43.90
27534;DHT22;14973;51.460;7.008;2023-04-15T03:03:31;5.90;47.00
27534;DHT22;14973;51.460;7.008;2023-04-15T03:05:57;5.90;50.00
27534;DHT22;14973;51.460;7.008;2023-04-15T03:08:22;6.00;52.80
27534;DHT22;14973;51.460;7.008;2023-04-15T03:10:48;5.90;54.30
27534;DHT22;14973;51.460;7.008;2023-04-15T03:13:16;6.00;57.20
27534;DHT22;14973;51.460;7.008;2023-04-15T03:15:42;6.00;57.30
27534;DHT22;14973;51.460;7.008;2023-04-15T03:18:07;6.00;58.70
27534;DHT22;14973;51.460;7.008;2023-04-15T03:20:33;6.10;58.20
27534;DHT22;14973;51.460;7.008;2023-04-15T03:23:00;6.00;56.70
27534;DHT22;14973;51.460;7.008;2023-04-15T03:25:25;6.00;62.90
27534;DHT22;14973;51.460;7.008;2023-04-15T03:27:51;6.00;64.40
27534;DHT22;14973;51.460;7.008;2023-04-15T03:30:17;6.00;65.80
27534;DHT22;14973;51.460;7.008;2023-04-15T03:32:42;6.00;67.70
27534;DHT22;14973;51.460;7.008;2023-04-15T03:35:08;6.00;68.60
27534;DHT22;14973;51.460;7.008;2023-04-15T03:37:33;5.90;72.00
27534;DHT22;14973;51.460;7.008;2023-04-15T03:39:59;5.90;75.20
27534;DHT22;14973;51.460;7.008;2023-04-15T03:42:25;5.80;79.50
27534;DHT22;14973;51.460;7.008;2023-04-15T03:44:51;5.80;79.60
27534;DHT22;14973;51.460;7.008;2023-04-15T03:47:16;5.90;83.80
27534;DHT22;14973;51.460;7.008;2023-04-15T03:49:42;5.90;85.80
27534;DHT22;14973;51.460;7.008;2023-04-15T03:52:07;5.80;86.70
27534;DHT22;14973;51.460;7.008;2023-04-15T03:54:33;5.90;88.10
27534;DHT22;14973;51.460;7.008;2023-04-15T03:56:58;5.90;85.20
27534;DHT22;14973;51.460;7.008;2023-04-15T03:59:24;5.80;85.60
27534;DHT22;14973;51.460;7.008;2023-04-15T04:01:49;5.80;86.30
27534;DHT22;14973;51.460;7.008;2023-04-15T04:04:15;5.70;90.90
27534;DHT22;14973;51.460;7.008;2023-04-15T04:06:40;5.60;92.20
27534;DHT22;14973;51.460;7.008;2023-04-15T04:09:06;5.60;94.80
27534;DHT22;14973;51.460;7.008;2023-04-15T04:11:31;5.50;94.00
27534;DHT22;14973;51.460;7.008;2023-04-15T04:13:57;5.40;95.80
27534;DHT22;14973;51.460;7.008;2023-04-15T04:16:22;5.30;97.90
27534;DHT22;14973;51.460;7.008;2023-04-15T04:18:48;5.30;98.90
27534;DHT22;14973;51.460;7.008;2023-04-15T04:21:13;5.20;99.90
27534;DHT22;14973;51.460;7.008;2023-04-15T04:23:39;5.20;99.90
27534;DHT22;14973;51.460;7.008;2023-04-15T04:26:05;5.20;99.90
27534;DHT22;14973;51.460;7.008;2023-04-15T04:28:30;5.20;99.90
27534;DHT22;14973;51.460;7.008;2023-04-15T04:30:56;5.10;99.90
27534;DHT22;14973;51.460;7.008;2023-04-15T04:33:21;5.10;99.90
27534;DHT22;14973;51.460;7.008;2023-04-15T04:35:47;5.00;99.90
27534;DHT22;14973;51.460;7.008;2023-04-15T04:38:12;5.00;99.90
27534;DHT22;14973;51.460;7.008;2023-04-15T04:40:37;5.00;99.90
27534;DHT22;14973;51.460;7.008;2023-04-15T04:43:03;5.00;99.90
27534;DHT22;14973;51.460;7.008;2023-04-15T04:45:28;5.00;99.90
27534;DHT22;14973;51.460;7.008;2023-04-15T04:47:54;5.00;99.90
27534;DHT22;14973;51.460;7.008;2023-04-15T04:50:19;5.00;99.90
27534;DHT22;14973;51.460;7.008;2023-04-15T04:52:45;5.00;99.90
27534;DHT22;14973;51.460;7.008;2023-04-15T04:55:11;5.00;99.90
27534;DHT22;14973;51.460;7.008;2023-04-15T04:57:36;5.10;99.90
27534;DHT22;14973;51.460;7.008;2023-04-15T05:00:04;5.10;99.90
27534;DHT22;14973;51.460;7.008;2023-04-15T05:02:30;5.10;99.90
27534;DHT22;14973;51.460;7.008;2023-04-15T05:04:56;5.10;99.90
27534;DHT22;14973;51.460;7.008;2023-04-15T05:07:22;5.20;99.90
27534;DHT22;14973;51.460;7.008;2023-04-15T05:09:47;5.20;99.90
27534;DHT22;14973;51.460;7.008;2023-04-15T05:12:13;5.30;99.90
27534;DHT22;14973;51.460;7.008;2023-04-15T05:14:39;5.30;99.90
27534;DHT22;14973;51.460;7.008;2023-04-15T05:17:05;5.40;99.90
27534;DHT22;14973;51.460;7.008;2023-04-15T05:19:30;5.50;99.90
27534;DHT22;14973;51.460;7.008;2023-04-15T05:21:56;5.50;99.90
27534;DHT22;14973;51.460;7.008;2023-04-15T05:24:22;5.60;99.90
27534;DHT22;14973;51.460;7.008;2023-04-15T05:26:47;5.70;99.90
27534;DHT22;14973;51.460;7.008;2023-04-15T05:29:13;5.80;99.90
27534;DHT22;14973;51.460;7.008;2023-04-15T05:31:38;5.90;99.90
27534;DHT22;14973;51.460;7.008;2023-04-15T05:34:03;6.00;99.90
27534;DHT22;14973;51.460;7.008;2023-04-15T05:36:29;6.10;99.90
27534;DHT22;14973;51.460;7.008;2023-04-15T05:38:55;6.10;99.90
27534;DHT22;14973;51.460;7.008;2023-04-15T05:41:21;6.30;99.70
27534;DHT22;14973;51.460;7.008;2023-04-15T05:43:47;6.40;95.90
27534;DHT22;14973;51.460;7.008;2023-04-15T05:46:12;6.60;94.20
27534;DHT22;14973;51.460;7.008;2023-04-15T05:48:38;6.60;83.00
27534;DHT22;14973;51.460;7.008;2023-04-15T05:51:03;6.70;79.30
27534;DHT22;14973;51.460;7.008;2023-04-15T05:53:29;7.00;70.40
27534;DHT22;14973;51.460;7.008;2023-04-15T05:55:55;7.10;52.40
27534;DHT22;14973;51.460;7.008;2023-04-15T05:58:20;7.20;41.50
27534;DHT22;14973;51.460;7.008;2023-04-15T06:00:46;7.40;30.60
27534;DHT22;14973;51.460;7.008;2023-04-15T06:03:11;7.40;32.60
27534;DHT22;14973;51.460;7.008;2023-04-15T06:05:37;7.60;23.50
27534;DHT22;14973;51.460;7.008;2023-04-15T06:08:02;7.90;7.60
27534;DHT22;14973;51.460;7.008;2023-04-15T06:10:28;8.30;1.00
27534;DHT22;14973;51.460;7.008;2023-04-15T06:12:53;8.50;1.00
27534;DHT22;14973;51.460;7.008;2023-04-15T06:15:19;8.60;1.00
27534;DHT22;14973;51.460;7.008;2023-04-15T06:17:44;8.60;1.00
27534;DHT22;14973;51.460;7.008;2023-04-15T06:20:10;8.50;1.00
27534;DHT22;14973;51.460;7.008;2023-04-15T06:22:36;8.70;1.00
27534;DHT22;14973;51.460;7.008;2023-04-15T06:25:03;9.10;1.00
27534;DHT22;14973;51.460;7.008;2023-04-15T06:27:29;9.50;1.00
27534;DHT22;14973;51.460;7.008;2023-04-15T06:29:54;9.80;99.90
27534;DHT22;14973;51.460;7.008;2023-04-15T06:32:20;10.50;99.90
27534;DHT22;14973;51.460;7.008;2023-04-15T06:34:45;11.10;1.00
27534;DHT22;14973;51.460;7.008;2023-04-15T06:37:11;11.40;99.90
27534;DHT22;14973;51.460;7.008;2023-04-15T06:39:40;12.10;99.90
27534;DHT22;14973;51.460;7.008;2023-04-15T06:42:06;12.30;99.90
27534;DHT22;14973;51.460;7.008;2023-04-15T06:44:32;12.90;99.90
27534;DHT22;14973;51.460;7.008;2023-04-15T06:46:57;13.30;87.60
27534;DHT22;14973;51.460;7.008;2023-04-15T06:49:23;14.10;1.00
27534;DHT22;14973;51.460;7.008;2023-04-15T06:51:48;14.80;1.00
27534;DHT22;14973;51.460;7.008;2023-04-15T06:54:15;15.10;1.00
27534;DHT22;14973;51.460;7.008;2023-04-15T06:56:41;15.60;1.00
27534;DHT22;14973;51.460;7.008;2023-04-15T06:59:07;16.20;1.00
27534;DHT22;14973;51.460;7.008;2023-04-15T07:01:33;16.80;99.90
27534;DHT22;14973;51.460;7.008;2023-04-15T07:03:58;16.50;99.90
27534;DHT22;14973;51.460;7.008;2023-04-15T07:06:23;16.80;99.90
27534;DHT22;14973;51.460;7.008;2023-04-15T07:08:50;16.70;99.90
27534;DHT22;14973;51.460;7.008;2023-04-15T07:11:15;16.40;99.90
27534;DHT22;14973;51.460;7.008;2023-04-15T07:13:41;15.90;99.90
27534;DHT22;14973;51.460;7.008;2023-04-15T07:16:07;15.60;99.90
27534;DHT22;14973;51.460;7.008;2023-04-15T07:18:33;14.90;99.90
27534;DHT22;14973;51.460;7.008;2023-04-15T07:20:58;14.80;1.00
27534;DHT22;14973;51.460;7.008;2023-04-15T07:23:24;14.40;1.00
27534;DHT22;14973;51.460;7.008;2023-04-15T07:25:49;13.50;1.00
27534;DHT22;14973;51.460;7.008;2023-04-15T07:28:16;12.70;6.90
27534;DHT22;14973;51.460;7.008;2023-04-15T07:30:42;12.70;99.90
27534;DHT22;14973;51.460;7.008;2023-04-15T07:33:07;12.50;99.90
27534;DHT22;14973;51.460;7.008;2023-04-15T07:35:33;12.50;99.90
27534;DHT22;14973;51.460;7.008;2023-04-15T07:37:58;12.90;99.90
27534;DHT22;14973;51.460;7.008;2023-04-15T07:40:24;13.10;99.90
27534;DHT22;14973;51.460;7.008;2023-04-15T07:42:49;13.20;91.50
27534;DHT22;14973;51.460;7.008;2023-04-15T07:45:15;13.40;33.20
27534;DHT22;14973;51.460;7.008;2023-04-15T07:47:41;13.50;7.50
27534;DHT22;14973;51.460;7.008;2023-04-15T07:50:08;13.90;1.00
27534;DHT22;14973;51.460;7.008;2023-04-15T07:52:33;14.10;1.00
27534;DHT22;14973;51.460;7.008;2023-04-15T07:55:06;14.40;1.00
27534;DHT22;14973;51.460;7.008;2023-04-15T07:57:35;14.70;1.00
27534;DHT22;14973;51.460;7.008;2023-04-15T08:00:01;15.00;1.00
27534;DHT22;14973;51.460;7.008;2023-04-15T08:02:29;15.20;1.00
27534;DHT22;14973;51.460;7.008;2023-04-15T08:04:54;15.40;1.00
27534;DHT22;14973;51.460;7.008;2023-04-15T08:07:20;14.90;1.00
27534;DHT22;14973;51.460;7.008;2023-04-15T08:09:45;14.80;1.00
27534;DHT22;14973;51.460;7.008;2023-04-15T08:12:11;14.90;1.00
27534;DHT22;14973;51.460;7.008;2023-04-15T08:14:38;14.60;1.00
27534;DHT22;14973;51.460;7.008;2023-04-15T08:17:04;14.50;1.00
27534;DHT22;14973;51.460;7.008;2023-04-15T08:19:30;14.50;1.00
27534;DHT22;14973;51.460;7.008;2023-04-15T08:21:55;14.60;1.00
27534;DHT22;14973;51.460;7.008;2023-04-15T08:24:22;14.90;1.00
27534;DHT22;14973;51.460;7.008;2023-04-15T08:26:47;14.70;1.00
27534;DHT22;14973;51.460;7.008;2023-04-15T08:29:13;14.10;1.00
27534;DHT22;14973;51.460;7.008;2023-04-15T08:31:38;14.40;1.00
27534;DHT22;14973;51.460;7.008;2023-04-15T08:34:04;14.50;1.00
27534;DHT22;14973;51.460;7.008;2023-04-15T08:36:29;14.90;1.00
27534;DHT22;14973;51.460;7.008;2023-04-15T08:38:56;15.40;1.00
27534;DHT22;14973;51.460;7.008;2023-04-15T08:41:23;15.80;99.90
27534;DHT22;14973;51.460;7.008;2023-04-15T08:43:53;15.80;99.90
27534;DHT22;14973;51.460;7.008;2023-04-15T08:46:19;15.80;99.90
27534;DHT22;14973;51.460;7.008;2023-04-15T08:48:46;16.20;99.90
27534;DHT22;14973;51.460;7.008;2023-04-15T08:51:11;16.80;99.90
27534;DHT22;14973;51.460;7.008;2023-04-15T08:53:41;17.30;99.90
27534;DHT22;14973;51.460;7.008;2023-04-15T08:56:07;17.80;99.90
27534;DHT22;14973;51.460;7.008;2023-04-15T08:58:37;17.90;99.90
27534;DHT22;14973;51.460;7.008;2023-04-15T09:01:03;18.00;99.90
27534;DHT22;14973;51.460;7.008;2023-04-15T09:03:28;17.70;99.90
27534;DHT22;14973;51.460;7.008;2023-04-15T09:05:54;17.90;99.90
27534;DHT22;14973;51.460;7.008;2023-04-15T09:08:20;18.20;99.90
27534;DHT22;14973;51.460;7.008;2023-04-15T09:10:45;18.60;99.90
27534;DHT22;14973;51.460;7.008;2023-04-15T09:13:11;18.20;99.90
27534;DHT22;14973;51.460;7.008;2023-04-15T09:15:39;17.90;99.90
27534;DHT22;14973;51.460;7.008;2023-04-15T09:18:05;17.40;99.90
27534;DHT22;14973;51.460;7.008;2023-04-15T09:20:37;16.90;99.90
27534;DHT22;14973;51.460;7.008;2023-04-15T09:23:10;16.40;99.90
27534;DHT22;14973;51.460;7.008;2023-04-15T09:25:36;16.20;99.90
27534;DHT22;14973;51.460;7.008;2023-04-15T09:28:02;16.50;99.90
27534;DHT22;14973;51.460;7.008;2023-04-15T09:30:27;16.20;99.90
27534;DHT22;14973;51.460;7.008;2023-04-15T09:35:19;15.80;99.90
27534;DHT22;14973;51.460;7.008;2023-04-15T09:37:45;15.60;99.90
27534;DHT22;14973;51.460;7.008;2023-04-15T09:40:10;14.80;99.90
27534;DHT22;14973;51.460;7.008;2023-04-15T09:42:36;14.40;99.90
27534;DHT22;14973;51.460;7.008;2023-04-15T09:45:18;14.60;99.90
27534;DHT22;14973;51.460;7.008;2023-04-15T09:47:43;14.60;99.90
27534;DHT22;14973;51.460;7.008;2023-04-15T09:50:09;14.70;99.90
27534;DHT22;14973;51.460;7.008;2023-04-15T09:52:40;14.50;99.90
27534;DHT22;14973;51.460;7.008;2023-04-15T09:55:07;14.20;1.00
27534;DHT22;14973;51.460;7.008;2023-04-15T09:57:35;14.00;1.00
27534;DHT22;14973;51.460;7.008;2023-04-15T10:00:02;13.50;1.00
27534;DHT22;14973;51.460;7.008;2023-04-15T10:02:28;13.20;1.00
27534;DHT22;14973;51.460;7.008;2023-04-15T10:04:54;13.20;1.00
27534;DHT22;14973;51.460;7.008;2023-04-15T10:07:20;13.30;1.00
27534;DHT22;14973;51.460;7.008;2023-04-15T10:09:49;13.20;1.00
27534;DHT22;14973;51.460;7.008;2023-04-15T10:12:18;13.10;1.00
27534;DHT22;14973;51.460;7.008;2023-04-15T10:14:47;13.00;99.90
27534;DHT22;14973;51.460;7.008;2023-04-15T10:17:13;12.90;99.90
27534;DHT22;14973;51.460;7.008;2023-04-15T10:19:42;12.80;99.90
27534;DHT22;14973;51.460;7.008;2023-04-15T10:22:08;12.90;99.90
27534;DHT22;14973;51.460;7.008;2023-04-15T10:24:33;12.90;99.90
27534;DHT22;14973;51.460;7.008;2023-04-15T10:26:59;12.60;99.90
27534;DHT22;14973;51.460;7.008;2023-04-15T10:29:25;12.20;99.90
27534;DHT22;14973;51.460;7.008;2023-04-15T10:31:54;12.30;99.90
27534;DHT22;14973;51.460;7.008;2023-04-15T10:34:20;12.10;99.90
27534;DHT22;14973;51.460;7.008;2023-04-15T10:36:46;12.20;99.90
27534;DHT22;14973;51.460;7.008;2023-04-15T10:44:30;12.60;7.80
27534;DHT22;14973;51.460;7.008;2023-04-15T10:46:56;12.80;1.00
27534;DHT22;14973;51.460;7.008;2023-04-15T10:49:25;13.00;1.00
27534;DHT22;14973;51.460;7.008;2023-04-15T10:51:52;13.10;1.00
27534;DHT22;14973;51.460;7.008;2023-04-15T10:59:30;12.80;1.00
27534;DHT22;14973;51.460;7.008;2023-04-15T11:01:59;12.80;1.00
27534;DHT22;14973;51.460;7.008;2023-04-15T11:07:09;12.80;1.00
27534;DHT22;14973;51.460;7.008;2023-04-15T11:09:35;12.90;1.00
27534;DHT22;14973;51.460;7.008;2023-04-15T11:12:07;13.00;1.00
27534;DHT22;14973;51.460;7.008;2023-04-15T11:14:38;13.10;1.00
27534;DHT22;14973;51.460;7.008;2023-04-15T11:17:04;13.20;1.00
27534;DHT22;14973;51.460;7.008;2023-04-15T11:19:36;13.20;1.00
27534;DHT22;14973;51.460;7.008;2023-04-15T11:22:09;13.20;1.00
27534;DHT22;14973;51.460;7.008;2023-04-15T11:24:35;12.90;1.00
27534;DHT22;14973;51.460;7.008;2023-04-15T11:27:00;12.50;89.00
27534;DHT22;14973;51.460;7.008;2023-04-15T11:29:32;12.50;99.90
27534;DHT22;14973;51.460;7.008;2023-04-15T11:32:03;12.20;99.90
27534;DHT22;14973;51.460;7.008;2023-04-15T11:34:29;12.00;1.00
27534;DHT22;14973;51.460;7.008;2023-04-15T11:36:55;11.70;1.00
27534;DHT22;14973;51.460;7.008;2023-04-15T11:39:21;11.70;1.00
27534;DHT22;14973;51.460;7.008;2023-04-15T11:41:46;11.60;11.50
27534;DHT22;14973;51.460;7.008;2023-04-15T11:44:16;11.60;1.00
27534;DHT22;14973;51.460;7.008;2023-04-15T11:46:42;11.60;99.90
27534;DHT22;14973;51.460;7.008;2023-04-15T11:49:07;11.60;99.90
27534;DHT22;14973;51.460;7.008;2023-04-15T11:51:33;11.50;1.00
27534;DHT22;14973;51.460;7.008;2023-04-15T11:53:59;11.50;99.90
27534;DHT22;14973;51.460;7.008;2023-04-15T11:56:25;11.60;1.00
27534;DHT22;14973;51.460;7.008;2023-04-15T11:58:54;11.40;99.90
27534;DHT22;14973;51.460;7.008;2023-04-15T12:01:29;11.30;1.00
27534;DHT22;14973;51.460;7.008;2023-04-15T12:03:55;11.20;1.00
27534;DHT22;14973;51.460;7.008;2023-04-15T12:06:21;11.20;4.70
27534;DHT22;14973;51.460;7.008;2023-04-15T12:09:03;11.30;99.90
27534;DHT22;14973;51.460;7.008;2023-04-15T12:11:39;11.30;99.90
27534;DHT22;14973;51.460;7.008;2023-04-15T12:16:43;11.40;1.00
27534;DHT22;14973;51.460;7.008;2023-04-15T12:19:10;11.40;99.90
27534;DHT22;14973;51.460;7.008;2023-04-15T12:21:37;11.30;99.90
27534;DHT22;14973;51.460;7.008;2023-04-15T12:24:04;11.20;1.00
27534;DHT22;14973;51.460;7.008;2023-04-15T12:26:34;11.10;99.90
27534;DHT22;14973;51.460;7.008;2023-04-15T12:31:25;11.10;99.90
27534;DHT22;14973;51.460;7.008;2023-04-15T12:33:53;11.10;99.90
27534;DHT22;14973;51.460;7.008;2023-04-15T12:36:19;11.00;7.30
27534;DHT22;14973;51.460;7.008;2023-04-15T12:38:44;11.10;1.00
27534;DHT22;14973;51.460;7.008;2023-04-15T12:41:10;11.20;99.90
27534;DHT22;14973;51.460;7.008;2023-04-15T12:43:36;11.10;99.90
27534;DHT22;14973;51.460;7.008;2023-04-15T12:46:01;11.30;99.90
27534;DHT22;14973;51.460;7.008;2023-04-15T12:48:27;11.50;1.00
27534;DHT22;14973;51.460;7.008;2023-04-15T12:50:53;11.60;1.00
27534;DHT22;14973;51.460;7.008;2023-04-15T12:53:19;11.60;99.90
27534;DHT22;14973;51.460;7.008;2023-04-15T12:55:44;11.60;99.90
27534;DHT22;14973;51.460;7.008;2023-04-15T12:58:10;11.60;99.90
27534;DHT22;14973;51.460;7.008;2023-04-15T13:00:36;11.70;1.00
27534;DHT22;14973;51.460;7.008;2023-04-15T13:03:01;11.70;1.00
27534;DHT22;14973;51.460;7.008;2023-04-15T13:05:27;11.40;1.00
27534;DHT22;14973;51.460;7.008;2023-04-15T13:07:53;11.50;1.00
27534;DHT22;14973;51.460;7.008;2023-04-15T13:10:18;11.40;99.90
27534;DHT22;14973;51.460;7.008;2023-04-15T13:12:44;11.40;1.00
27534;DHT22;14973;51.460;7.008;2023-04-15T13:15:11;11.40;57.50
27534;DHT22;14973;51.460;7.008;2023-04-15T13:17:37;11.50;11.80
27534;DHT22;14973;51.460;7.008;2023-04-15T13:20:02;11.50;1.00
27534;DHT22;14973;51.460;7.008;2023-04-15T13:22:28;11.50;1.00
27534;DHT22;14973;51.460;7.008;2023-04-15T13:24:54;11.60;99.90
27534;DHT22;14973;51.460;7.008;2023-04-15T13:27:19;11.50;1.00
27534;DHT22;14973;51.460;7.008;2023-04-15T13:29:45;11.40;99.90
27534;DHT22;14973;51.460;7.008;2023-04-15T13:32:11;11.50;99.90
27534;DHT22;14973;51.460;7.008;2023-04-15T13:34:36;11.50;1.00
27534;DHT22;14973;51.460;7.008;2023-04-15T13:37:06;11.50;1.00
27534;DHT22;14973;51.460;7.008;2023-04-15T13:39:32;11.50;1.00
27534;DHT22;14973;51.460;7.008;2023-04-15T13:41:57;11.50;1.00
27534;DHT22;14973;51.460;7.008;2023-04-15T13:44:23;11.50;99.90
27534;DHT22;14973;51.460;7.008;2023-04-15T13:46:49;11.40;99.90
27534;DHT22;14973;51.460;7.008;2023-04-15T13:49:14;11.30;99.90
27534;DHT22;14973;51.460;7.008;2023-04-15T13:51:40;11.30;1.00
27534;DHT22;14973;51.460;7.008;2023-04-15T13:54:06;11.40;99.90
27534;DHT22;14973;51.460;7.008;2023-04-15T13:56:31;11.30;1.00
27534;DHT22;14973;51.460;7.008;2023-04-15T13:58:57;11.10;99.90
27534;DHT22;14973;51.460;7.008;2023-04-15T14:01:23;11.00;1.00
27534;DHT22;14973;51.460;7.008;2023-04-15T14:03:49;10.90;1.00
27534;DHT22;14973;51.460;7.008;2023-04-15T14:06:15;10.90;1.00
27534;DHT22;14973;51.460;7.008;2023-04-15T14:08:40;10.90;1.00
27534;DHT22;14973;51.460;7.008;2023-04-15T14:11:06;10.90;1.00
27534;DHT22;14973;51.460;7.008;2023-04-15T14:13:31;11.00;1.00
27534;DHT22;14973;51.460;7.008;2023-04-15T14:15:57;11.00;1.00
27534;DHT22;14973;51.460;7.008;2023-04-15T14:18:22;11.00;1.00
27534;DHT22;14973;51.460;7.008;2023-04-15T14:20:48;11.00;1.00
27534;DHT22;14973;51.460;7.008;2023-04-15T14:23:13;10.90;1.00
27534;DHT22;14973;51.460;7.008;2023-04-15T14:25:39;11.00;1.00
27534;DHT22;14973;51.460;7.008;2023-04-15T14:28:04;10.90;1.00
27534;DHT22;14973;51.460;7.008;2023-04-15T14:30:30;10.90;1.00
27534;DHT22;14973;51.460;7.008;2023-04-15T14:32:55;10.90;1.00
27534;DHT22;14973;51.460;7.008;2023-04-15T14:35:21;10.90;1.00
27534;DHT22;14973;51.460;7.008;2023-04-15T14:37:48;11.00;1.00
27534;DHT22;14973;51.460;7.008;2023-04-15T14:40:14;10.90;1.00
27534;DHT22;14973;51.460;7.008;2023-04-15T14:42:39;10.80;1.00
27534;DHT22;14973;51.460;7.008;2023-04-15T14:45:05;10.70;1.00
27534;DHT22;14973;51.460;7.008;2023-04-15T14:47:31;10.70;1.00
27534;DHT22;14973;51.460;7.008;2023-04-15T14:49:56;10.70;1.00
27534;DHT22;14973;51.460;7.008;2023-04-15T14:52:22;10.70;1.00
27534;DHT22;14973;51.460;7.008;2023-04-15T14:54:47;10.80;15.00
27534;DHT22;14973;51.460;7.008;2023-04-15T14:57:13;10.80;1.00
27534;DHT22;14973;51.460;7.008;2023-04-15T14:59:38;10.70;1.40
27534;DHT22;14973;51.460;7.008;2023-04-15T15:02:03;10.60;14.70
27534;DHT22;14973;51.460;7.008;2023-04-15T15:04:29;10.70;20.50
27534;DHT22;14973;51.460;7.008;2023-04-15T15:06:57;10.60;17.50
27534;DHT22;14973;51.460;7.008;2023-04-15T15:09:23;10.50;26.00
27534;DHT22;14973;51.460;7.008;2023-04-15T15:11:49;10.60;31.70
27534;DHT22;14973;51.460;7.008;2023-04-15T15:14:15;10.50;31.50
27534;DHT22;14973;51.460;7.008;2023-04-15T15:16:40;10.60;41.30
27534;DHT22;14973;51.460;7.008;2023-04-15T15:19:06;10.50;28.30
27534;DHT22;14973;51.460;7.008;2023-04-15T15:21:31;10.50;31.60
27534;DHT22;14973;51.460;7.008;2023-04-15T15:23:57;10.40;33.40
27534;DHT22;14973;51.460;7.008;2023-04-15T15:26:22;10.30;24.30
27534;DHT22;14973;51.460;7.008;2023-04-15T15:28:48;10.20;44.00
27534;DHT22;14973;51.460;7.008;2023-04-15T15:31:15;10.10;37.90
27534;DHT22;14973;51.460;7.008;2023-04-15T15:33:41;10.10;56.80
27534;DHT22;14973;51.460;7.008;2023-04-15T15:36:06;10.20;73.80
27534;DHT22;14973;51.460;7.008;2023-04-15T15:38:32;10.20;76.40
27534;DHT22;14973;51.460;7.008;2023-04-15T15:40:57;10.10;85.50
27534;DHT22;14973;51.460;7.008;2023-04-15T15:43:23;10.10;90.80
27534;DHT22;14973;51.460;7.008;2023-04-15T15:45:48;10.20;93.30
27534;DHT22;14973;51.460;7.008;2023-04-15T15:48:16;10.10;87.60
27534;DHT22;14973;51.460;7.008;2023-04-15T15:50:43;10.00;91.70
27534;DHT22;14973;51.460;7.008;2023-04-15T15:53:09;9.90;86.80
27534;DHT22;14973;51.460;7.008;2023-04-15T15:55:36;9.90;82.60